Letterkenny Army Depot, Pennsylvania
Current Conditions -  °F | °C
As of 9:53 AM on Friday 24 Oct 2014 (Local Time) from KHGR Reporting Station
Clear Clear  
Wind Chill: 55°   Ceiling: Unl
Heat Index: 55°   Visibility: 10mi
Dew Point: 41°   Wind: 13mph
Humidity: 59%   Direction: 290°WNW
Pressure: 30.01"   Gusts: NA
Location:  39.9438°N, 77.6827°W
Report Text: KHGR 241353Z 29011KT 10SM CLR 13/05 A3001 RMK AO2 SLP172 T01280050
Loading
Personal Weather Stations






























Interactive Weather Map
Tropical Storm Tracking
New forecast layout! Learn more

10-Day Weather Forecast

Advertisements
Track Severe Weather on mobile